MAPA DE AEROPUERTO

INFORMACIÓN METAR y TAF

METAR FOR LEVT
ADDS - METARS form results

(0321 UTC 07 May 2021)
Data provider http://aviationweather.gov/metar/data/
 
METAR text: LEVT 070300Z VRB01KT 9000 FEW013 BKN077 11/10 Q1018
Conditions at: LEVT (VITORIA , ES) observed 0300 UTC 07 May 2021
Temperature: 11.0°C (52°F)
Dewpoint: 10.0°C (50°F) [RH = 94%]
Pressure (altimeter): 30.06 inches Hg (1018.0 mb)
Winds: variable direction winds at 1 MPH (1 knots; 0.5 m/s)
Visibility: 6 miles ( 9 km)
Ceiling: 7700 feet AGL
Clouds: few clouds at 1300 feet AGL
broken clouds at 7700 feet AGL
Weather: no significant weather observed at this time

METAR text: LEVT 070230Z VRB01KT 8000 FEW012 SCT027 BKN075 11/11 Q1018
Conditions at: LEVT (VITORIA , ES) observed 0230 UTC 07 May 2021
Temperature: 11.0°C (52°F)
Dewpoint: 11.0°C (52°F) [RH = 100%]
Pressure (altimeter): 30.06 inches Hg (1018.0 mb)
Winds: variable direction winds at 1 MPH (1 knots; 0.5 m/s)
Visibility: 5 miles ( 8 km)
Ceiling: 7500 feet AGL
Clouds: few clouds at 1200 feet AGL
scattered clouds at 2700 feet AGL
broken clouds at 7500 feet AGL
Weather: no significant weather observed at this time

Forecast for: LEVT (VITORIA , ES)
Text: TAF LEVT 062300Z 0700/0724 VRB03KT 9999 FEW020 TX21/0714Z TN07/0702Z
Forecast period: 0000 UTC 07 May 2021 to 0000 UTC 08 May 2021
Forecast type: FROM: standard forecast or significant change
Winds: variable direction winds at 3 MPH (3 knots; 1.5 m/s)
Visibility: 6 or more miles (10+ km)
Ceiling: at least 12,000 feet AGL
Clouds: few clouds at 2000 feet AGL
Weather: no significant weather forecast for this period
Text: TEMPO 0700/0709 3000 BR BCFG BKN010
Forecast period: 0000 to 0900 UTC 07 May 2021
Forecast type: TEMPORARY: The following changes expected for less than half the time period
Visibility: 1.86 miles (2.99 km)
Ceiling: 1000 feet AGL
Clouds: broken clouds at 1000 feet AGL
Weather: BR BCFG  (mist, patches of fog)
Text: PROB40
Forecast period: 0300 to 0800 UTC 07 May 2021
Forecast type: TEMPORARY: The following changes expected for less than half the time period
Visibility: 0.22 miles (0.35 km)
Ceiling: indefinite ceiling with vertical visibility of 100 feet AGL
Clouds: obscured sky
Weather: FG  (fog)
Text: TEMPO 0703/0708 0350 FG VV001
Forecast period: 1200 to 2000 UTC 07 May 2021
Forecast type: TEMPORARY: The following changes expected for less than half the time period
Winds: from the NNE (30 degrees) at 12 MPH (10 knots; 5.1 m/s)
Visibility: missing
Ceiling: unknown
Clouds: missing
Weather: no significant weather forecast for this period
Text: TEMPO 0712/0720 03010KT
Forecast period: 2100 UTC 07 May 2021 to 0000 UTC 08 May 2021
Forecast type: TEMPORARY: The following changes expected for less than half the time period
Visibility: 1.86 miles (2.99 km)
Ceiling: 1000 feet AGL
Clouds: broken clouds at 1000 feet AGL
Weather: BR BCFG  (mist, patches of fog)